VTK519 EGLC-LYNI
Flight info
| Callsign | VTK519 |
|---|---|
| Flight time | N/A |
| Altitude | 37000 |
| Route | N0450F370 SOQQA DCT KONAN DCT SUXIM DCT ESEGA DCT SASAL DCT BABIT DCT SOSEK |
| Aircraft | B737/M-SDE2E3FGHIRWXY/LB1 |
Departure
| Time | 2026-05-07 06:27 |
|---|---|
| Airport | London City Airport (EGLC) |
Arrival
| Time | N/A |
|---|---|
| Airport | Niš Constantine the Great Airport (LYNI) |
| Time | Latitude | Longitude | Altitude | Speed | Heading |
|---|---|---|---|---|---|
| 2026-05-07 06:19 | 51.50409 | 0.05072 | 24 ft | 0 kts | 324° |
| 2026-05-07 06:24 | 51.50412 | 0.05072 | 24 ft | 1 kts | 356° |
| 2026-05-07 06:24 | 51.50424 | 0.05076 | 27 ft | 3 kts | 9° |
| 2026-05-07 06:24 | 51.50454 | 0.05061 | 27 ft | 5 kts | 311° |
| 2026-05-07 06:24 | 51.50462 | 0.05000 | 26 ft | 7 kts | 272° |
| 2026-05-07 06:25 | 51.50464 | 0.04917 | 24 ft | 8 kts | 273° |
| 2026-05-07 06:25 | 51.50467 | 0.04819 | 26 ft | 9 kts | 272° |
| 2026-05-07 06:25 | 51.50471 | 0.04708 | 24 ft | 10 kts | 273° |
| 2026-05-07 06:25 | 51.50474 | 0.04590 | 27 ft | 11 kts | 272° |
| 2026-05-07 06:26 | 51.50482 | 0.04476 | 24 ft | 10 kts | 292° |
| 2026-05-07 06:26 | 51.50539 | 0.04448 | 27 ft | 10 kts | 26° |
| 2026-05-07 06:26 | 51.50553 | 0.04545 | 24 ft | 10 kts | 93° |
| 2026-05-07 06:26 | 51.50537 | 0.05056 | 24 ft | 94 kts | 93° |
| 2026-05-07 06:27 | 51.50491 | 0.06545 | 228 ft | 154 kts | 93° |
| 2026-05-07 06:27 | 51.50439 | 0.08251 | 1408 ft | 156 kts | 93° |
| 2026-05-07 06:27 | 51.50458 | 0.09993 | 2368 ft | 152 kts | 79° |
| 2026-05-07 06:27 | 51.50839 | 0.11642 | 2428 ft | 160 kts | 60° |
| 2026-05-07 06:28 | 51.51508 | 0.13037 | 2695 ft | 156 kts | 45° |
| 2026-05-07 06:28 | 51.52371 | 0.14057 | 2970 ft | 159 kts | 26° |
| 2026-05-07 06:28 | 51.53425 | 0.14819 | 3027 ft | 171 kts | 26° |
| 2026-05-07 06:28 | 51.54528 | 0.15650 | 3036 ft | 173 kts | 26° |
| 2026-05-07 06:29 | 51.55451 | 0.16873 | 2978 ft | 179 kts | 65° |
| 2026-05-07 06:29 | 51.55683 | 0.18108 | 2972 ft | 171 kts | 82° |
| 2026-05-07 06:29 | 51.55874 | 0.19955 | 3009 ft | 170 kts | 82° |
| 2026-05-07 06:29 | 51.56077 | 0.21921 | 3071 ft | 187 kts | 82° |
| 2026-05-07 06:30 | 51.56311 | 0.24096 | 3113 ft | 207 kts | 78° |
| 2026-05-07 06:30 | 51.56851 | 0.26372 | 3169 ft | 228 kts | 63° |
| 2026-05-07 06:30 | 51.57605 | 0.28748 | 3436 ft | 250 kts | 64° |
| 2026-05-07 06:30 | 51.58377 | 0.31276 | 4242 ft | 255 kts | 65° |
| 2026-05-07 06:31 | 51.59163 | 0.33889 | 5027 ft | 263 kts | 66° |
| 2026-05-07 06:31 | 51.59956 | 0.36561 | 5864 ft | 267 kts | 68° |
| 2026-05-07 06:31 | 51.60332 | 0.39472 | 6665 ft | 269 kts | 97° |
| 2026-05-07 06:31 | 51.59835 | 0.42364 | 7514 ft | 271 kts | 114° |
| 2026-05-07 06:32 | 51.59064 | 0.45174 | 8319 ft | 278 kts | 116° |
| 2026-05-07 06:32 | 51.58246 | 0.47994 | 9144 ft | 285 kts | 116° |
| 2026-05-07 06:32 | 51.57386 | 0.50901 | 10000 ft | 292 kts | 115° |
| 2026-05-07 06:32 | 51.56508 | 0.53876 | 10834 ft | 296 kts | 115° |
| 2026-05-07 06:33 | 51.55629 | 0.56866 | 11733 ft | 297 kts | 115° |